• Join FlightAware (Why Join?)
  • Login
  • US Flag 
11:27AM EDT


 

Airport Tracker/Info


-or-


 

Live Flight TrackerFlight Track Log ✈ N340K ✈ 08-Nov-2013 ✈ M50 - KBVS

Flight Track Log - Related Links

Times and Time Zones

All times are in EST time to prevent confusion due to time zone crossing. See the N340K flight status page for this flight to view local times or setup timezone preferences in your user account.

Time Position Orientation Groundspeed Altitude Reporting Facility
EST Latitude Longitude Course Direction KTS MPH feet Rate Location/Type
02:56PM 45.9325 -119.9506 333° Northwest 123 142 4,600  Level Seattle Center
02:57PM 45.9667 -119.9703 338° Northwest 135 155 5,500 900 Climbing Seattle Center
02:58PM 46.0000 -119.9950 333° Northwest 135 155 6,500 840 Climbing Seattle Center
02:59PM 46.0319 -120.0283 324° Northwest 143 165 7,300 780 Climbing Seattle Center
03:00PM 46.0006 -119.9924 328° Northwest  Level Estimated
03:00PM 46.0664 -120.0594 328° Northwest 147 169 8,200  Level Seattle Center
03:01PM 46.0997 -120.0922 326° Northwest 145 167 9,000 780 Climbing Seattle Center
03:02PM 46.1347 -120.1250 327° Northwest 150 173 9,800 840 Climbing Seattle Center
03:03PM 46.1681 -120.1567 327° Northwest 147 169 10,800 960 Climbing Seattle Center
03:04PM 46.2067 -120.1956 325° Northwest 142 163 11,800 780 Climbing Seattle Center
03:05PM 46.2433 -120.2275 329° Northwest 152 175 12,500 600 Climbing Seattle Center
03:06PM 46.2756 -120.2583 327° Northwest 145 167 13,100 540 Climbing Seattle Center
03:07PM 46.3094 -120.2919 326° Northwest 145 167 13,600 480 Climbing Seattle Center
03:08PM 46.3419 -120.3217 328° Northwest 142 163 14,100 240 Climbing Seattle Center
03:09PM 46.3786 -120.3592 325° Northwest 161 185 14,100  Level Seattle Center
03:10PM 46.4167 -120.3914 330° Northwest 158 182 14,100  Level Seattle Center
03:11PM 46.4556 -120.4311 325° Northwest 170 196 14,100  Level Seattle Center
03:12PM 46.4983 -120.4711 327° Northwest 180 207 14,100  Level Seattle Center
03:13PM 46.5378 -120.5108 325° Northwest 174 200 14,100  Level Seattle Center
03:14PM 46.5767 -120.5511 325° Northwest 172 198 14,100  Level Seattle Center
03:15PM 46.6264 -120.5911 331° Northwest 172 198 14,100  Level Seattle Center
03:16PM 46.6658 -120.6300 326° Northwest 171 197 14,100  Level Seattle Center
03:17PM 46.7053 -120.6694 326° Northwest 171 197 14,100  Level Seattle Center
03:18PM 46.7461 -120.7067 328° Northwest 173 199 14,100  Level Seattle Center
03:19PM 46.7839 -120.7447 325° Northwest 168 193 14,100  Level Seattle Center
03:20PM 46.8233 -120.7819 327° Northwest 169 194 14,100  Level Seattle Center
03:21PM 46.8628 -120.8189 327° Northwest 169 194 14,100  Level Seattle Center
03:22PM 46.9014 -120.8564 326° Northwest 167 192 14,100  Level Seattle Center
03:23PM 46.9406 -120.8942 327° Northwest 170 196 14,100  Level Seattle Center
03:24PM 46.9803 -120.9294 329° Northwest 167 192 14,100  Level Seattle Center
03:25PM 47.0186 -120.9669 326° Northwest 165 190 14,100  Level Seattle Center
03:26PM 47.0619 -121.0083 327° Northwest 173 199 14,100 -60 Level Seattle Center
03:28PM 47.1014 -121.0475 326° Northwest 172 198 14,000  Descending Seattle Center
03:29PM 47.1403 -121.0811 330° Northwest 163 188 14,100  Climbing Seattle Center
03:30PM 47.1772 -121.1206 324° Northwest 165 190 14,100  Level Seattle Center
03:31PM 47.2231 -121.1650 327° Northwest 163 188 14,100  Level Seattle Center
03:32PM 47.2619 -121.2014 328° Northwest 165 190 14,100  Level Seattle Center
03:33PM 47.3011 -121.2419 325° Northwest 170 196 14,100  Level Seattle Center
03:34PM 47.3389 -121.2800 326° Northwest 166 191 14,100  Level Seattle Center
03:35PM 47.3767 -121.3178 326° Northwest 167 192 14,100  Level Seattle Center
03:35PM 47.3947 -121.3353 327° Northwest 166 191 14,100  Level Seattle Center
03:36PM 47.4144 -121.3558 325° Northwest 166 191 14,100  Level Seattle Center
03:36PM 47.4300 -121.3675 333° Northwest 162 186 14,100  Level Seattle Center
03:37PM 47.4550 -121.3933 325° Northwest 161 185 14,100  Level Seattle Center
03:38PM 47.4919 -121.4297 326° Northwest 160 184 14,100  Level Seattle Center
03:39PM 47.5286 -121.4683 325° Northwest 162 186 14,100  Level Seattle Center
03:40PM 47.5656 -121.5047 326° Northwest 162 186 14,100  Level Seattle Center
03:41PM 47.6047 -121.5444 326° Northwest 160 184 14,100  Level Seattle Center
03:42PM 47.6431 -121.5814 327° Northwest 165 190 14,100 -300 Level Seattle Center
03:43PM 47.6806 -121.6233 323° Northwest 170 196 13,600 -600 Descending Seattle Center
03:44PM 47.7239 -121.6661 326° Northwest 186 214 12,900 -720 Descending Seattle Center
03:45PM 47.7678 -121.7122 325° Northwest 193 222 12,200 -720 Descending Seattle Center
03:46PM 47.8172 -121.7586 328° Northwest 196 226 11,500 -660 Descending Seattle Center
03:47PM 47.8589 -121.7983 327° Northwest 195 224 10,900 -600 Descending Seattle Center
03:48PM 47.9022 -121.8442 325° Northwest 193 222 10,300 -600 Descending Seattle Center
03:48PM 47.9347 -121.8794 324° Northwest 191 220 10,000 -360 Descending Seattle Center
03:49PM 47.9461 -121.8892 330° Northwest 188 216 10,000  Level Seattle Center
03:49PM 47.9461 -121.8872 90° East 190 219 10,000  Level Seattle Center
03:50PM 47.9886 -121.9308 326° Northwest 173 199 10,000  Level Seattle Center
03:50PM 47.9864 -121.9267 129° Southeast 178 205 10,000  Level Seattle Center
03:51PM 48.0256 -121.9692 324° Northwest 171 197 10,000 -240 Level Seattle Center
03:51PM 48.0314 -121.9789 312° West 172 198 9,800 -900 Descending Seattle Center
03:52PM 48.0528 -122.0300 302° West 186 214 9,100 -900 Descending Seattle Center
03:52PM 48.0600 -122.0414 313° West 182 209 8,900 -1,380 Descending Seattle Center
03:53PM 48.0878 -122.0861 313° West 190 219 7,700 -1,500 Descending Seattle Center
03:53PM 48.0964 -122.0967 321° Northwest 187 215 7,400 -1,320 Descending Seattle Center
03:54PM 48.1228 -122.1425 311° West 189 217 6,400 -1,200 Descending Seattle Center
03:54PM 48.1294 -122.1564 306° West 187 215 6,200 -900 Descending Seattle Center
03:55PM 48.1525 -122.2053 305° West 174 200 5,500 -720 Descending Seattle Center
03:55PM 48.1597 -122.2100 336° Northwest 174 200 5,500 -720 Level Seattle Center
03:56PM 48.1978 -122.1989 11° North 163 188 4,800 -840 Descending Seattle Center
03:56PM 48.2050 -122.1958 16° North 164 189 4,700 -420 Descending Seattle Center
03:57PM 48.2378 -122.1889 North 146 168 4,400 -300 Descending Seattle Center
03:57PM 48.2458 -122.1861 13° North 149 171 4,400 -660 Level Seattle Center
03:58PM 48.2753 -122.1869 359° North 155 178 3,800 -840 Descending Seattle Center
03:58PM 48.2864 -122.1969 329° Northwest 158 182 3,600 -1,020 Descending Seattle Center
03:59PM 48.3167 -122.2431 315° West 178 205 2,700 -1,020 Descending Seattle Center
03:59PM 48.3203 -122.2469 324° Northwest 169 194 2,600 -540 Descending Seattle Center
04:00PM 48.3472 -122.2922 312° West 167 192 2,200 -540 Descending Seattle Center
04:00PM 48.3531 -122.2950 342° North 168 193 2,100 -420 Descending Seattle Center
04:02PM 48.4039 -122.3539 326° Northwest  Level FlightAware Approximate
04:09PM 48.4667 -122.4167 North  Level FlightAware Approximate
04:10PM 48.4705 -122.4217 North  Level Estimated